logo tempoitalia

Diretta Meteo Coffs Harbour, Australialunedì 31 agosto ore 15:00

Mappa
Sereno 21 °C Sereno 24 Ore: T.min 9 T.max 21
Ponente Sud-Est Km/h 16.7 Punto di rugiada: 14 °C Umidità: 64% Visibilità: 10 Km
Il sole sorge alle: 06:04 Il sole tramonta alle: 17:31
31 Agosto 2026 15:00 tempo osservato: Sereno Sereno 21 64 1029 vento: Nord SE 16.7
31 Agosto 2026 14:30 tempo osservato: Sereno Sereno 21 64 1029 vento: Nord S/SE 16.7
31 Agosto 2026 14:00 tempo osservato: Sereno Sereno 21 64 1029 vento: Nord S/SE 18.5
31 Agosto 2026 13:30 tempo osservato: Sereno Sereno 21 64 1029 vento: Nord SE 18.5
31 Agosto 2026 13:00 tempo osservato: Sereno Sereno 21 64 1029 vento: Nord S/SE 18.5
31 Agosto 2026 12:30 tempo osservato: Sereno Sereno 21 60 1030 vento: Nord S 18.5
31 Agosto 2026 12:00 tempo osservato: Sereno Sereno 21 60 1030 vento: Nord S/SE 18.5
31 Agosto 2026 11:30 tempo osservato: Sereno Sereno 21 60 1030 vento: Nord S/SE 16.7
31 Agosto 2026 11:00 tempo osservato: Sereno Sereno 21 56 1030 vento: Nord S 16.7
31 Agosto 2026 10:30 tempo osservato: Sereno Sereno 21 56 1031 vento: Nord S/SE 14.8
31 Agosto 2026 10:00 tempo osservato: Sereno Sereno 21 56 1031 vento: Nord S/SO 14.8
31 Agosto 2026 09:30 tempo osservato: Sereno Sereno 20 59 1031 vento: Nord SO 13
31 Agosto 2026 09:00 tempo osservato: Sereno Sereno 18 67 1031 vento: Nord SO 13
31 Agosto 2026 08:30 tempo osservato: Sereno Sereno 17 72 1031 vento: Nord SO 14.8
31 Agosto 2026 08:00 tempo osservato: Sereno Sereno 14 87 1031 vento: Nord O/SO 11.1
31 Agosto 2026 07:30 tempo osservato: Sereno Sereno 13 100 1030 vento: Nord N 5.5
31 Agosto 2026 07:00 tempo osservato: Sereno Sereno 11 100 1030 vento: Nord O/NO 7.4
31 Agosto 2026 06:43 tempo osservato: Sereno Sereno 10 100 1030 vento: Nord O/NO 7.4
31 Agosto 2026 06:30 tempo osservato: Foschia Foschia 9 100 1030 vento: Nord O/NO 7.4
31 Agosto 2026 06:00 tempo osservato: Foschia Foschia 9 100 1030 vento: Nord O 7.4
31 Agosto 2026 05:48 tempo osservato: Foschia Foschia 9 100 1029 vento: Nord N 5.5
31 Agosto 2026 05:44 tempo osservato: Nebbia Nebbia 9 100 1029 vento: Nord N 5.5
31 Agosto 2026 05:30 tempo osservato: Foschia Foschia 9 100 1029 vento: Nord N 5.5
31 Agosto 2026 05:00 tempo osservato: Foschia Foschia 9 100 1029 vento: Nord O 7.4
31 Agosto 2026 04:41 tempo osservato: Foschia Foschia 9 100 1029 vento: Nord NO 7.4
31 Agosto 2026 04:30 tempo osservato: Nebbia Nebbia 9 100 1029 vento: Nord NO 7.4
31 Agosto 2026 04:29 tempo osservato: Nebbia Nebbia 9 100 1029 vento: Nord NO 7.4
31 Agosto 2026 04:22 tempo osservato: Foschia Foschia 10 100 1029 vento: Nord NO 7.4
31 Agosto 2026 04:20 tempo osservato: Sereno Sereno 10 100 1029 vento: Nord NO 7.4
31 Agosto 2026 04:04 tempo osservato: Foschia Foschia 9 100 1029 vento: Nord N 5.5
31 Agosto 2026 04:00 tempo osservato: Nebbia Nebbia 9 100 1029 vento: Nord N 5.5
31 Agosto 2026 03:39 tempo osservato: Nebbia Nebbia 9 100 1029 vento: Nord N 5.5
31 Agosto 2026 03:30 tempo osservato: Foschia Foschia 10 100 1029 vento: Nord N 5.5
31 Agosto 2026 03:24 tempo osservato: Foschia Foschia 10 100 1029 vento: Nord N 1.8
31 Agosto 2026 03:20 tempo osservato: Nebbia Nebbia 10 100 1029 vento: Nord N 0
31 Agosto 2026 03:10 tempo osservato: Foschia Foschia 9 100 1029 vento: Nord N 3.7
31 Agosto 2026 03:00 tempo osservato: Nebbia Nebbia 9 100 1029 vento: Nord N 5.5
31 Agosto 2026 02:59 tempo osservato: Nebbia Nebbia 9 100 1029 vento: Nord N 5.5
31 Agosto 2026 02:43 tempo osservato: Foschia Foschia 9 100 1029 vento: Nord N 3.7
31 Agosto 2026 02:30 tempo osservato: Nebbia Nebbia 9 100 1029 vento: Nord N 3.7
31 Agosto 2026 02:25 tempo osservato: Nebbia Nebbia 9 100 1029 vento: Nord N 0
31 Agosto 2026 02:21 tempo osservato: Foschia Foschia 9 100 1029 vento: Nord N 1.8
31 Agosto 2026 02:06 tempo osservato: Nebbia Nebbia 10 100 1029 vento: Nord O/NO 7.4
31 Agosto 2026 02:00 tempo osservato: Foschia Foschia 10 100 1029 vento: Nord O/NO 7.4
31 Agosto 2026 01:52 tempo osservato: Foschia Foschia 9 100 1029 vento: Nord NO 7.4
31 Agosto 2026 01:41 tempo osservato: Nebbia Nebbia 10 100 1029 vento: Nord NO 7.4
31 Agosto 2026 01:30 tempo osservato: Foschia Foschia 10 100 1029 vento: Nord NO 7.4
31 Agosto 2026 01:23 tempo osservato: Sereno Sereno 10 100 1030 vento: Nord NO 7.4
31 Agosto 2026 01:16 tempo osservato: Sereno Sereno 10 100 1030 vento: Nord NO 7.4
31 Agosto 2026 01:00 tempo osservato: Foschia Foschia 10 100 1030 vento: Nord O/NO 7.4
31 Agosto 2026 00:45 tempo osservato: Foschia Foschia 10 93 1030 vento: Nord NO 7.4
31 Agosto 2026 00:41 tempo osservato: Sereno Sereno 10 100 1030 vento: Nord NO 7.4
31 Agosto 2026 00:30 tempo osservato: Sereno Sereno 10 100 1030 vento: Nord O/NO 7.4
31 Agosto 2026 00:00 tempo osservato: Foschia Foschia 10 100 1030 vento: Nord N 0
30 Agosto 2026 23:41 tempo osservato: Sereno Sereno 10 100 1030 vento: Nord N 0
30 Agosto 2026 23:30 tempo osservato: Sereno Sereno 10 100 1030 vento: Nord N 0
30 Agosto 2026 23:23 tempo osservato: Sereno Sereno 10 100 1030 vento: Nord N 0
30 Agosto 2026 23:00 tempo osservato: Sereno Sereno 10 100 1030 vento: Nord N 0
30 Agosto 2026 22:53 tempo osservato: Sereno Sereno 11 93 1030 vento: Nord N 0
30 Agosto 2026 22:31 tempo osservato: Poco Nuvoloso Poco Nuvoloso 11 100 1030 vento: Nord N 0
30 Agosto 2026 22:09 tempo osservato: Sereno Sereno 12 100 1030 vento: Nord N 0
30 Agosto 2026 22:00 tempo osservato: Sereno Sereno 11 100 1030 vento: Nord N 1.8
30 Agosto 2026 21:52 tempo osservato: Sereno Sereno 11 100 1030 vento: Nord NO 7.4
30 Agosto 2026 21:30 tempo osservato: Sereno Sereno 12 100 1030 vento: Nord NO 9.3
30 Agosto 2026 21:00 tempo osservato: Sereno Sereno 11 100 1030 vento: Nord O/NO 7.4
30 Agosto 2026 20:30 tempo osservato: Sereno Sereno 12 93 1030 vento: Nord N 5.5
30 Agosto 2026 20:00 tempo osservato: Sereno Sereno 12 93 1030 vento: Nord N 1.8
30 Agosto 2026 19:30 tempo osservato: Sereno Sereno 13 93 1029 vento: Nord N 0
30 Agosto 2026 19:00 tempo osservato: Poco Nuvoloso Poco Nuvoloso 14 87 1029 vento: Nord N 5.5
30 Agosto 2026 18:30 tempo osservato: Sereno Sereno 15 82 1029 vento: Nord O/SO 7.4
30 Agosto 2026 18:00 tempo osservato: Sereno Sereno 16 77 1029 vento: Nord S 13
30 Agosto 2026 17:30 tempo osservato: Sereno Sereno 18 67 1029 vento: Nord S 14.8
30 Agosto 2026 17:00 tempo osservato: Sereno Sereno 19 59 1028 vento: Nord S/SE 16.7
30 Agosto 2026 16:30 tempo osservato: Sereno Sereno 19 63 1028 vento: Nord S 16.7
30 Agosto 2026 16:00 tempo osservato: Poco Nuvoloso Poco Nuvoloso 19 63 1028 vento: Nord S/SE 18.5